Time;durP1;ratioP1;P1;durP2;ratioP2;P2;SDS_P1;SDS_P2;PMS_P1;PMS_P2;Temp;Humidity;BMP_temperature;BMP_pressure;BME280_temperature;BME280_humidity;BME280_pressure;Samples;Min_cycle;Max_cycle;Signal;HPM_P1;HPM_P2
2022/01/20 00:01:13;;;;;;;6.17;3.97;;;3.50;77.90;;;;;;6219344;23;20267;-79
2022/01/20 00:03:43;;;;;;;5.13;3.90;;;3.50;77.30;;;;;;6218960;23;20232;-82
2022/01/20 00:09:14;;;;;;;5.60;3.50;;;3.60;77.10;;;;;;6215464;23;20228;-79
2022/01/20 00:28:14;;;;;;;4.70;3.27;;;3.60;76.20;;;;;;6221008;23;20481;-80
2022/01/20 00:30:50;;;;;;;4.23;3.33;;;3.60;76.60;;;;;;6223230;23;20162;-79
2022/01/20 00:33:32;;;;;;;4.93;3.57;;;3.50;77.10;;;;;;6222587;23;20635;-82
2022/01/20 00:38:46;;;;;;;6.37;3.70;;;3.60;76.60;;;;;;6181200;23;20642;-85
2022/01/20 00:41:21;;;;;;;4.37;3.57;;;3.70;75.70;;;;;;6219829;23;20173;-80
2022/01/20 00:43:48;;;;;;;4.43;3.43;;;3.70;76.00;;;;;;6220487;23;20234;-82
2022/01/20 00:46:15;;;;;;;5.27;3.30;;;3.70;76.30;;;;;;6221931;23;20225;-82
2022/01/20 00:48:41;;;;;;;6.77;3.73;;;3.70;76.00;;;;;;6219662;23;20232;-80
2022/01/20 00:51:10;;;;;;;4.53;3.43;;;3.80;76.60;;;;;;6219672;23;20205;-80
2022/01/20 00:53:39;;;;;;;4.90;3.73;;;3.80;75.50;;;;;;6219738;23;20194;-81
2022/01/20 00:56:06;;;;;;;3.70;3.23;;;3.70;75.60;;;;;;6219888;23;20264;-83
2022/01/20 00:58:33;;;;;;;4.00;3.17;;;3.60;76.20;;;;;;6219018;23;20273;-80
2022/01/20 01:00:59;;;;;;;4.60;3.20;;;3.70;76.20;;;;;;6219912;23;20492;-80
2022/01/20 01:03:26;;;;;;;3.87;3.10;;;3.70;75.70;;;;;;6218903;23;20598;-80
2022/01/20 01:06:05;;;;;;;4.73;3.50;;;3.70;75.50;;;;;;6219465;23;20225;-82
2022/01/20 01:08:33;;;;;;;5.20;3.73;;;3.70;76.10;;;;;;6220243;23;20202;-80
2022/01/20 01:11:00;;;;;;;4.37;3.50;;;3.60;76.40;;;;;;6220051;23;20261;-82
2022/01/20 01:13:28;;;;;;;5.43;3.70;;;3.70;76.20;;;;;;6220005;23;20276;-80
2022/01/20 01:15:55;;;;;;;4.13;3.47;;;3.70;75.80;;;;;;6220717;23;20646;-80
2022/01/20 01:21:15;;;;;;;4.13;3.50;;;3.80;75.20;;;;;;6220574;23;20196;-80
2022/01/20 01:23:45;;;;;;;5.80;3.40;;;3.80;75.40;;;;;;6219979;23;20197;-80
2022/01/20 01:26:15;;;;;;;3.97;3.20;;;3.80;75.60;;;;;;6221293;23;20246;-80
2022/01/20 01:28:43;;;;;;;4.93;3.40;;;3.80;75.40;;;;;;6221747;23;20201;-80
2022/01/20 01:31:36;;;;;;;6.03;3.20;;;3.70;75.60;;;;;;6221914;23;20220;-80
2022/01/20 01:34:06;;;;;;;3.80;3.23;;;3.80;76.10;;;;;;6221248;23;20284;-82
2022/01/20 01:36:47;;;;;;;4.10;3.07;;;3.90;74.70;;;;;;6221245;23;20170;-80
2022/01/20 01:39:16;;;;;;;4.57;3.37;;;3.80;75.00;;;;;;6221894;23;20211;-80
2022/01/20 01:41:44;;;;;;;4.10;3.37;;;3.80;75.10;;;;;;6223899;23;20204;-84
2022/01/20 01:44:19;;;;;;;6.10;3.27;;;3.80;75.50;;;;;;6222488;23;20201;-80
2022/01/20 01:46:46;;;;;;;5.80;3.10;;;3.70;75.50;;;;;;6221622;23;20494;-80
2022/01/20 01:49:12;;;;;;;3.50;2.97;;;3.70;75.70;;;;;;6220552;23;20281;-82
2022/01/20 01:51:39;;;;;;;5.13;3.33;;;3.70;75.90;;;;;;6221163;23;20697;-80
2022/01/20 01:54:06;;;;;;;3.83;3.03;;;3.60;75.90;;;;;;6219680;23;20278;-80
2022/01/20 01:56:35;;;;;;;3.87;3.00;;;3.70;75.60;;;;;;6221448;23;20225;-80
2022/01/20 01:59:02;;;;;;;3.80;3.00;;;3.70;75.40;;;;;;6220401;23;20233;-82
2022/01/20 02:01:33;;;;;;;3.90;3.10;;;3.70;75.20;;;;;;6220806;23;20249;-80
2022/01/20 02:04:11;;;;;;;3.40;2.80;;;3.80;75.10;;;;;;6219952;23;20281;-80
2022/01/20 02:09:38;;;;;;;4.67;2.90;;;3.60;75.40;;;;;;6219215;23;20229;-81
2022/01/20 02:18:35;;;;;;;3.43;3.13;;;3.70;75.00;;;;;;6218856;23;20197;-80
2022/01/20 02:21:03;;;;;;;4.67;3.20;;;3.70;75.20;;;;;;6220226;23;20236;-81
2022/01/20 02:23:30;;;;;;;4.27;3.00;;;3.70;75.50;;;;;;6219751;23;20277;-82
2022/01/20 02:26:04;;;;;;;3.83;3.00;;;3.70;75.20;;;;;;6220637;23;20197;-80
2022/01/20 02:28:31;;;;;;;4.33;3.37;;;3.70;75.70;;;;;;6220120;23;20211;-80
2022/01/20 02:30:58;;;;;;;3.67;2.90;;;3.70;75.80;;;;;;6220566;23;20169;-80
2022/01/20 02:33:27;;;;;;;3.33;2.73;;;3.70;76.10;;;;;;6220031;23;20269;-83
2022/01/20 02:35:56;;;;;;;3.77;2.77;;;3.70;76.40;;;;;;6220546;23;20656;-80
2022/01/20 02:38:31;;;;;;;4.80;2.83;;;3.70;76.80;;;;;;6218666;23;20213;-80
2022/01/20 02:46:28;;;;;;;3.73;2.90;;;3.20;84.30;;;;;;6219606;23;20204;-80
2022/01/20 02:48:55;;;;;;;4.87;3.27;;;3.20;85.50;;;;;;6219191;23;20197;-80
2022/01/20 02:51:22;;;;;;;3.63;2.97;;;3.20;86.40;;;;;;6218943;23;20174;-80
2022/01/20 02:53:50;;;;;;;3.80;3.00;;;3.10;87.80;;;;;;6219160;22;20273;-80
2022/01/20 02:56:17;;;;;;;5.20;3.30;;;3.10;87.80;;;;;;6219460;23;20201;-80
2022/01/20 02:58:44;;;;;;;4.30;3.40;;;3.10;87.80;;;;;;6218920;23;20589;-80
2022/01/20 03:01:11;;;;;;;4.53;3.50;;;3.10;87.80;;;;;;6220954;23;20594;-80
2022/01/20 03:03:38;;;;;;;4.07;3.17;;;3.20;87.50;;;;;;6221345;23;20582;-81
2022/01/20 03:06:05;;;;;;;3.80;3.07;;;3.30;87.00;;;;;;6219909;23;20253;-80
2022/01/20 03:08:33;;;;;;;3.43;3.10;;;3.20;87.80;;;;;;6219003;23;20201;-80
2022/01/20 03:11:02;;;;;;;3.63;3.23;;;3.20;87.80;;;;;;6221033;23;20200;-80
2022/01/20 03:13:29;;;;;;;4.20;3.17;;;3.10;89.10;;;;;;6221479;23;20276;-81
2022/01/20 03:15:55;;;;;;;3.97;3.30;;;3.10;89.80;;;;;;6222149;23;20260;-80
2022/01/20 03:18:22;;;;;;;4.20;3.57;;;3.10;89.00;;;;;;6223383;23;20240;-80
2022/01/20 03:20:49;;;;;;;4.40;3.40;;;3.00;90.00;;;;;;6222943;23;20210;-81
2022/01/20 03:23:36;;;;;;;4.90;3.20;;;3.10;87.80;;;;;;6217620;23;20240;-81
2022/01/20 03:26:04;;;;;;;4.30;3.30;;;3.10;87.80;;;;;;6218876;23;20158;-80
2022/01/20 03:28:31;;;;;;;4.07;3.00;;;3.20;87.80;;;;;;6218472;23;20249;-80
2022/01/20 03:30:58;;;;;;;3.87;3.07;;;3.20;87.80;;;;;;6218754;23;20261;-81
2022/01/20 03:33:24;;;;;;;4.10;2.93;;;3.30;88.80;;;;;;6217687;23;20219;-82
2022/01/20 03:35:53;;;;;;;4.20;3.10;;;3.30;87.90;;;;;;6218234;23;20253;-80
2022/01/20 03:38:20;;;;;;;3.83;3.10;;;3.30;87.90;;;;;;6218183;23;20198;-80
2022/01/20 03:40:47;;;;;;;4.10;3.03;;;3.10;90.00;;;;;;6218565;23;20158;-81
2022/01/20 03:43:17;;;;;;;3.83;3.30;;;3.00;90.40;;;;;;6218295;23;20218;-81
2022/01/20 03:45:48;;;;;;;3.87;3.10;;;3.00;90.90;;;;;;6217967;23;20626;-81
2022/01/20 03:48:15;;;;;;;4.73;3.23;;;2.90;91.40;;;;;;6217744;23;20159;-81
2022/01/20 03:51:00;;;;;;;4.10;3.33;;;2.90;91.90;;;;;;6218176;23;20342;-81
2022/01/20 03:53:27;;;;;;;3.90;3.10;;;2.90;91.90;;;;;;6220385;23;20677;-80
2022/01/20 03:55:54;;;;;;;4.50;3.40;;;2.80;92.60;;;;;;6218894;23;20170;-80
2022/01/20 03:58:23;;;;;;;5.70;3.73;;;2.80;92.90;;;;;;6218384;23;20169;-81
2022/01/20 04:00:50;;;;;;;4.30;3.33;;;2.70;93.60;;;;;;6217648;23;20158;-81
2022/01/20 04:03:17;;;;;;;4.03;3.23;;;2.60;94.50;;;;;;6217788;23;20200;-81
2022/01/20 04:05:56;;;;;;;3.50;2.87;;;2.50;94.50;;;;;;6217572;23;20174;-81
2022/01/20 04:08:24;;;;;;;6.27;3.73;;;2.50;94.90;;;;;;6217987;23;20514;-81
2022/01/20 04:10:51;;;;;;;4.57;3.47;;;2.50;95.20;;;;;;6218356;23;20533;-81
2022/01/20 04:13:18;;;;;;;5.20;3.50;;;2.30;96.10;;;;;;6217894;23;20712;-80
2022/01/20 04:15:48;;;;;;;5.57;3.80;;;2.20;96.70;;;;;;6220409;23;20474;-79
2022/01/20 04:31:14;;;;;;;5.37;3.93;;;1.80;98.60;;;;;;6233114;22;20527;-78
2022/01/20 04:33:41;;;;;;;4.57;3.60;;;1.90;98.90;;;;;;6215520;23;20590;-78
2022/01/20 04:36:08;;;;;;;5.83;3.83;;;1.90;98.80;;;;;;6216237;23;20166;-86
2022/01/20 04:38:35;;;;;;;5.20;3.67;;;1.80;99.30;;;;;;6215957;23;20265;-83
2022/01/20 04:41:02;;;;;;;4.57;3.73;;;1.80;99.60;;;;;;6214870;23;20198;-80
2022/01/20 04:43:29;;;;;;;5.50;3.90;;;1.80;99.60;;;;;;6214278;23;20197;-79
2022/01/20 04:46:02;;;;;;;6.67;4.53;;;1.70;99.50;;;;;;6214103;23;20235;-81
2022/01/20 04:48:45;;;;;;;6.40;4.03;;;1.70;99.90;;;;;;6214127;23;20232;-78
2022/01/20 04:59:27;;;;;;;6.37;4.13;;;1.60;99.90;;;;;;6213673;23;20848;-79
2022/01/20 05:01:54;;;;;;;6.60;4.53;;;1.60;99.90;;;;;;6215045;23;20248;-79
2022/01/20 05:04:24;;;;;;;5.90;4.13;;;1.70;99.90;;;;;;6214000;23;20205;-81
2022/01/20 05:06:54;;;;;;;5.77;4.07;;;1.50;99.90;;;;;;6214882;23;20240;-79
2022/01/20 05:09:21;;;;;;;5.90;4.33;;;1.60;99.90;;;;;;6213919;23;20205;-80
2022/01/20 05:11:56;;;;;;;9.50;4.67;;;1.60;99.90;;;;;;6214565;23;20193;-80
2022/01/20 05:14:23;;;;;;;5.87;4.10;;;1.60;99.90;;;;;;6213388;23;20255;-79
2022/01/20 05:16:53;;;;;;;8.27;4.63;;;1.60;99.90;;;;;;6214359;23;20253;-81
2022/01/20 05:19:22;;;;;;;7.53;4.70;;;1.60;99.90;;;;;;6213704;23;20205;-80
2022/01/20 05:21:49;;;;;;;8.67;5.00;;;1.60;99.90;;;;;;6214609;23;20212;-79
2022/01/20 05:24:16;;;;;;;7.10;5.13;;;1.60;99.90;;;;;;6212625;23;20206;-85
2022/01/20 05:26:42;;;;;;;7.03;5.10;;;1.70;99.90;;;;;;6214459;23;20257;-79
2022/01/20 05:29:09;;;;;;;9.37;5.37;;;1.70;99.90;;;;;;6213314;23;20233;-84
2022/01/20 05:31:36;;;;;;;9.47;5.60;;;1.70;99.90;;;;;;6214094;23;20203;-78
2022/01/20 05:34:03;;;;;;;6.60;4.87;;;1.60;99.90;;;;;;6212775;23;20821;-80
2022/01/20 05:36:31;;;;;;;9.03;5.30;;;1.70;99.90;;;;;;6213464;23;20673;-79
2022/01/20 05:38:58;;;;;;;8.33;6.10;;;1.70;99.90;;;;;;6213820;23;20220;-80
2022/01/20 05:41:25;;;;;;;7.90;5.77;;;1.70;99.90;;;;;;6213780;23;20178;-78
2022/01/20 05:43:58;;;;;;;7.87;5.60;;;1.60;99.90;;;;;;6212166;23;20206;-81
2022/01/20 05:46:33;;;;;;;8.43;5.97;;;1.60;99.90;;;;;;6213654;23;20241;-80
2022/01/20 05:49:08;;;;;;;8.13;5.70;;;1.60;99.90;;;;;;6213520;23;20258;-82
2022/01/20 05:51:37;;;;;;;7.67;5.30;;;1.60;99.90;;;;;;6214566;23;20164;-83
2022/01/20 05:54:04;;;;;;;8.50;5.47;;;1.70;99.90;;;;;;6213348;23;20413;-79
2022/01/20 05:56:39;;;;;;;9.23;5.87;;;1.80;99.90;;;;;;6212730;23;20174;-79
2022/01/20 05:59:06;;;;;;;7.27;5.60;;;1.80;99.90;;;;;;6212548;22;20653;-81
2022/01/20 06:01:36;;;;;;;7.97;5.63;;;1.80;99.90;;;;;;6213100;23;20175;-80
2022/01/20 06:04:05;;;;;;;8.43;5.23;;;1.80;99.90;;;;;;6212635;23;20209;-80
2022/01/20 06:06:36;;;;;;;8.50;5.47;;;1.80;99.90;;;;;;6212109;23;20232;-78
2022/01/20 06:09:04;;;;;;;7.10;5.07;;;1.80;99.90;;;;;;6213186;23;20198;-79
2022/01/20 06:11:31;;;;;;;8.33;5.87;;;1.90;99.90;;;;;;6214364;23;20190;-84
2022/01/20 06:13:58;;;;;;;8.93;5.57;;;1.80;99.90;;;;;;6219949;23;20213;-80
2022/01/20 06:16:25;;;;;;;7.97;5.53;;;1.80;99.90;;;;;;6219682;23;20178;-83
2022/01/20 06:18:53;;;;;;;6.87;5.40;;;1.80;99.90;;;;;;6218647;23;20288;-81
2022/01/20 06:21:23;;;;;;;7.80;5.57;;;1.80;99.90;;;;;;6219235;23;20245;-82
2022/01/20 06:23:53;;;;;;;8.17;6.13;;;1.80;99.90;;;;;;6216795;23;20273;-82
2022/01/20 06:26:20;;;;;;;6.93;5.20;;;1.80;99.90;;;;;;6216723;23;20221;-87
2022/01/20 06:28:47;;;;;;;6.23;5.07;;;1.90;99.90;;;;;;6215844;23;20202;-82
2022/01/20 06:31:16;;;;;;;6.50;4.93;;;1.80;99.90;;;;;;6218436;23;20181;-81
2022/01/20 06:33:47;;;;;;;8.03;5.60;;;1.80;99.90;;;;;;6217706;23;20563;-81
2022/01/20 06:36:15;;;;;;;7.57;5.10;;;1.80;99.90;;;;;;6212621;23;20159;-80
2022/01/20 06:38:49;;;;;;;6.90;4.90;;;1.80;99.90;;;;;;6211372;23;20202;-79
2022/01/20 06:41:18;;;;;;;6.07;4.77;;;1.80;99.90;;;;;;6212116;23;20580;-82
2022/01/20 06:43:45;;;;;;;6.87;5.43;;;1.80;99.90;;;;;;6211104;23;20209;-80
2022/01/20 06:46:14;;;;;;;7.67;5.57;;;1.80;99.90;;;;;;6213150;23;20241;-82
2022/01/20 06:48:42;;;;;;;7.07;5.30;;;1.80;99.90;;;;;;6212047;23;20201;-79
2022/01/20 06:51:09;;;;;;;7.13;4.93;;;1.80;99.90;;;;;;6213402;23;20159;-82
2022/01/20 06:53:42;;;;;;;7.03;5.03;;;1.90;99.90;;;;;;6213368;23;20198;-84
2022/01/20 06:56:14;;;;;;;5.80;4.53;;;1.90;99.90;;;;;;6213629;23;20556;-83
2022/01/20 06:58:49;;;;;;;7.10;5.27;;;1.90;99.90;;;;;;6211310;23;20725;-80
2022/01/20 07:01:25;;;;;;;6.07;4.87;;;1.90;99.90;;;;;;6211832;23;20678;-80
2022/01/20 07:04:17;;;;;;;6.17;5.00;;;1.90;99.90;;;;;;6208891;23;20216;-80
2022/01/20 07:06:48;;;;;;;7.10;4.60;;;1.90;99.90;;;;;;6211434;23;20177;-89
2022/01/20 07:09:21;;;;;;;7.60;5.57;;;2.00;99.90;;;;;;6211611;23;20265;-84
2022/01/20 07:11:48;;;;;;;6.97;5.13;;;1.90;99.90;;;;;;6214575;23;20486;-81
2022/01/20 07:14:18;;;;;;;6.60;4.90;;;1.90;99.90;;;;;;6212750;23;20227;-80
2022/01/20 07:16:45;;;;;;;6.00;4.63;;;1.90;99.90;;;;;;6211851;23;20252;-87
2022/01/20 07:19:12;;;;;;;5.57;4.53;;;2.00;99.90;;;;;;6211945;23;20277;-80
2022/01/20 07:21:39;;;;;;;6.87;4.90;;;2.00;99.90;;;;;;6211784;23;20180;-80
2022/01/20 07:24:07;;;;;;;5.03;4.07;;;2.00;99.90;;;;;;6211436;23;20596;-79
2022/01/20 07:26:34;;;;;;;5.37;4.33;;;2.10;99.90;;;;;;6211575;23;20255;-79
2022/01/20 07:29:01;;;;;;;6.33;4.40;;;2.00;99.90;;;;;;6210847;23;20529;-84
2022/01/20 07:31:30;;;;;;;7.93;4.90;;;2.10;99.90;;;;;;6217277;23;20189;-83
2022/01/20 07:34:04;;;;;;;5.30;4.30;;;2.10;99.90;;;;;;6213592;23;20213;-79
2022/01/20 07:36:33;;;;;;;5.13;4.43;;;2.10;99.90;;;;;;6210003;23;20183;-79
2022/01/20 07:39:08;;;;;;;5.87;4.47;;;2.10;99.90;;;;;;6210774;23;20198;-79
2022/01/20 07:41:35;;;;;;;6.43;4.50;;;2.00;99.90;;;;;;6212791;23;20241;-79
2022/01/20 07:44:02;;;;;;;8.97;4.80;;;2.20;99.90;;;;;;6212308;23;20285;-79
2022/01/20 07:46:31;;;;;;;5.63;3.97;;;2.10;99.90;;;;;;6212964;23;20184;-83
2022/01/20 07:49:02;;;;;;;5.97;3.83;;;2.10;99.90;;;;;;6210633;23;20580;-79
2022/01/20 07:51:29;;;;;;;3.97;3.27;;;2.20;99.90;;;;;;6212295;23;20158;-80
2022/01/20 07:53:59;;;;;;;5.17;4.00;;;2.30;99.70;;;;;;6210384;23;20208;-80
2022/01/20 07:56:27;;;;;;;5.73;3.63;;;2.30;99.70;;;;;;6220243;23;20158;-83
2022/01/20 07:58:54;;;;;;;4.87;3.80;;;2.30;99.70;;;;;;6221190;23;20206;-80
2022/01/20 08:01:25;;;;;;;4.53;3.63;;;2.30;99.70;;;;;;6221352;23;20231;-80
2022/01/20 08:03:54;;;;;;;4.83;3.77;;;2.20;99.60;;;;;;6223785;23;20201;-79
2022/01/20 08:06:22;;;;;;;7.10;3.90;;;2.30;99.70;;;;;;6222735;23;20214;-79
2022/01/20 08:08:56;;;;;;;4.73;3.80;;;2.30;99.70;;;;;;6215334;23;20162;-79
2022/01/20 08:11:23;;;;;;;4.93;4.10;;;2.30;99.70;;;;;;6220668;23;20163;-83
2022/01/20 08:13:50;;;;;;;5.43;4.27;;;2.40;99.70;;;;;;6210507;23;20212;-82
2022/01/20 08:16:28;;;;;;;4.53;3.50;;;2.40;99.70;;;;;;6213929;23;20241;-80
2022/01/20 08:18:57;;;;;;;6.53;3.80;;;2.40;99.70;;;;;;6206006;23;20285;-83
2022/01/20 08:21:25;;;;;;;5.40;3.80;;;2.40;99.70;;;;;;6211102;23;20158;-81
2022/01/20 08:23:51;;;;;;;5.17;3.33;;;2.40;99.70;;;;;;6219150;23;20201;-80
2022/01/20 08:26:19;;;;;;;3.57;3.10;;;2.50;99.70;;;;;;6220277;23;20162;-82
2022/01/20 08:28:46;;;;;;;4.10;3.47;;;2.50;99.70;;;;;;6218109;23;20208;-83
2022/01/20 08:31:13;;;;;;;3.83;3.40;;;2.50;99.70;;;;;;6219385;23;20213;-85
2022/01/20 08:33:40;;;;;;;3.23;2.93;;;2.50;99.40;;;;;;6220143;23;20200;-81
2022/01/20 08:36:09;;;;;;;3.40;3.10;;;2.60;99.70;;;;;;6218249;23;20561;-85
2022/01/20 08:38:37;;;;;;;3.33;3.03;;;2.60;99.00;;;;;;6218500;23;20221;-81
2022/01/20 08:41:04;;;;;;;3.13;2.83;;;2.60;98.60;;;;;;6216600;23;20632;-82
2022/01/20 08:43:38;;;;;;;2.63;2.43;;;2.70;98.40;;;;;;6217473;23;20663;-81
2022/01/20 08:46:06;;;;;;;3.40;3.00;;;2.70;98.20;;;;;;6218008;23;20166;-84
2022/01/20 08:48:34;;;;;;;2.77;2.43;;;2.60;98.30;;;;;;6206028;23;20213;-82
2022/01/20 08:51:05;;;;;;;3.53;3.00;;;2.70;98.10;;;;;;6220575;23;20174;-83
2022/01/20 08:53:34;;;;;;;2.97;2.60;;;2.70;98.10;;;;;;6208628;23;20610;-83
2022/01/20 08:56:02;;;;;;;3.67;2.83;;;2.60;98.00;;;;;;6222959;23;20167;-82
2022/01/20 09:02:03;;;;;;;3.40;2.83;;;2.60;98.10;;;;;;6223304;23;20158;-82
2022/01/20 09:04:30;;;;;;;4.80;3.03;;;2.50;98.30;;;;;;6225441;22;20493;-82
2022/01/20 09:06:57;;;;;;;3.67;2.63;;;2.60;98.70;;;;;;6225443;23;20264;-83
2022/01/20 09:10:07;;;;;;;3.20;2.90;;;2.60;98.40;;;;;;6224117;23;20281;-82
2022/01/20 09:16:05;;;;;;;3.87;3.10;;;2.70;98.30;;;;;;6221681;23;20217;-82
2022/01/20 09:18:32;;;;;;;3.47;2.80;;;2.80;98.40;;;;;;6221274;23;20204;-82
2022/01/20 09:20:59;;;;;;;3.50;2.70;;;2.80;98.10;;;;;;6215586;23;20502;-81
2022/01/20 09:23:26;;;;;;;3.27;2.90;;;2.80;97.90;;;;;;6215394;23;20217;-81
2022/01/20 09:25:54;;;;;;;3.10;2.80;;;2.80;97.70;;;;;;6217503;23;20276;-82
2022/01/20 09:28:21;;;;;;;5.03;3.17;;;2.80;98.20;;;;;;6216774;23;20237;-91
2022/01/20 09:30:49;;;;;;;4.83;3.07;;;2.80;97.90;;;;;;6216216;23;20537;-80
2022/01/20 09:33:26;;;;;;;3.50;3.10;;;2.80;97.40;;;;;;6215965;23;20269;-81
2022/01/20 09:35:55;;;;;;;3.20;2.90;;;2.80;97.50;;;;;;6215476;23;20245;-80
2022/01/20 09:38:24;;;;;;;3.60;3.30;;;2.80;97.90;;;;;;6215073;23;20292;-84
2022/01/20 09:40:52;;;;;;;3.30;3.00;;;2.80;98.10;;;;;;6216329;23;20158;-81
2022/01/20 09:43:27;;;;;;;4.23;3.50;;;3.00;97.90;;;;;;6216434;23;20159;-81
2022/01/20 09:45:55;;;;;;;3.43;3.13;;;3.00;97.70;;;;;;6216310;23;20265;-81
2022/01/20 09:48:22;;;;;;;4.27;3.17;;;3.10;97.40;;;;;;6217116;23;20201;-81
2022/01/20 09:50:50;;;;;;;4.53;3.17;;;3.00;97.70;;;;;;6219629;23;20261;-81
2022/01/20 09:53:20;;;;;;;4.93;3.60;;;3.20;97.30;;;;;;6216517;22;20178;-83
2022/01/20 09:55:47;;;;;;;3.83;3.43;;;3.20;96.60;;;;;;6214450;23;20181;-81
2022/01/20 09:58:15;;;;;;;3.80;3.00;;;3.30;96.10;;;;;;6214002;23;20162;-83
2022/01/20 10:00:51;;;;;;;4.40;3.30;;;3.30;95.90;;;;;;6214651;23;20170;-84
2022/01/20 10:03:20;;;;;;;4.67;3.20;;;3.40;95.50;;;;;;6215097;23;20166;-83
2022/01/20 10:05:50;;;;;;;4.00;3.10;;;3.60;95.90;;;;;;6215805;23;20198;-82
2022/01/20 10:08:21;;;;;;;3.37;2.73;;;4.00;94.90;;;;;;6214277;23;20162;-83
2022/01/20 10:10:50;;;;;;;4.67;2.73;;;4.10;93.20;;;;;;6215476;23;20483;-82
2022/01/20 10:13:19;;;;;;;3.67;3.00;;;3.90;93.60;;;;;;6216859;23;20488;-82
2022/01/20 10:16:00;;;;;;;3.50;2.73;;;3.80;93.60;;;;;;6219391;23;20213;-81
2022/01/20 10:18:28;;;;;;;3.90;2.87;;;3.70;94.00;;;;;;6221569;23;20207;-82
2022/01/20 10:21:47;;;;;;;4.73;2.70;;;3.70;94.20;;;;;;6225507;23;20645;-81
2022/01/20 10:24:14;;;;;;;2.97;2.63;;;3.50;94.20;;;;;;6225914;22;20216;-82
2022/01/20 10:26:42;;;;;;;3.70;3.00;;;3.40;94.80;;;;;;6226834;23;20194;-84
2022/01/20 10:29:12;;;;;;;3.60;3.00;;;3.40;94.70;;;;;;6224787;22;20204;-82
2022/01/20 10:32:05;;;;;;;4.63;3.10;;;3.50;94.70;;;;;;6226323;23;20205;-80
2022/01/20 10:41:31;;;;;;;3.97;3.00;;;3.70;94.80;;;;;;6159067;23;20163;-81
2022/01/20 10:46:58;;;;;;;7.33;3.20;;;3.80;94.80;;;;;;6222950;23;20165;-82
2022/01/20 10:52:50;;;;;;;3.33;2.73;;;3.80;94.80;;;;;;6225042;23;20145;-81
2022/01/20 10:55:23;;;;;;;5.03;3.80;;;3.90;94.10;;;;;;6218695;23;20882;-82
2022/01/20 10:57:52;;;;;;;5.07;3.40;;;4.00;94.40;;;;;;6217752;23;20170;-84
2022/01/20 11:00:27;;;;;;;3.93;3.47;;;4.30;93.90;;;;;;6218303;23;20281;-84
2022/01/20 11:02:56;;;;;;;3.40;3.00;;;4.90;92.60;;;;;;6219395;23;20213;-83
2022/01/20 11:05:23;;;;;;;3.13;2.80;;;5.60;91.40;;;;;;6217858;23;20737;-85
2022/01/20 11:07:52;;;;;;;3.70;2.88;;;6.30;89.20;;;;;;6222626;23;20173;-83
2022/01/20 11:10:20;;;;;;;3.05;2.60;;;6.80;86.60;;;;;;6224457;23;20177;-84
2022/01/20 11:12:48;;;;;;;2.95;2.65;;;7.30;80.40;;;;;;6223121;23;20521;-83
2022/01/20 11:30:41;;;;;;;4.10;2.60;;;5.70;84.40;;;;;;6219338;23;20193;-83
2022/01/20 11:33:10;;;;;;;3.57;2.90;;;5.80;83.80;;;;;;6216620;23;20481;-82
2022/01/20 11:35:41;;;;;;;2.97;2.50;;;5.70;84.20;;;;;;6217424;23;20250;-83
2022/01/20 11:38:09;;;;;;;2.60;2.40;;;5.70;81.00;;;;;;6217445;23;20162;-82
2022/01/20 11:40:48;;;;;;;4.93;3.03;;;5.50;82.20;;;;;;6217785;23;20210;-87
2022/01/20 11:43:15;;;;;;;4.20;3.07;;;5.40;82.90;;;;;;6215613;23;20501;-83
2022/01/20 11:45:46;;;;;;;3.20;2.27;;;5.40;83.80;;;;;;6218847;23;20265;-83
2022/01/20 11:48:16;;;;;;;3.40;2.40;;;5.10;84.80;;;;;;6217316;23;20166;-86
2022/01/20 11:50:44;;;;;;;5.87;2.20;;;4.90;84.40;;;;;;6219334;23;20249;-83
2022/01/20 11:53:13;;;;;;;5.43;2.10;;;4.80;83.20;;;;;;6212361;23;20170;-86
2022/01/20 11:55:45;;;;;;;4.47;2.30;;;4.80;83.70;;;;;;6215545;23;20615;-88
2022/01/20 11:58:13;;;;;;;4.60;2.80;;;4.80;83.90;;;;;;6216159;23;20242;-85
2022/01/20 12:00:41;;;;;;;3.60;2.40;;;4.80;84.40;;;;;;6215905;23;20232;-85
2022/01/20 12:03:16;;;;;;;2.83;2.50;;;4.80;85.50;;;;;;6215426;23;20496;-81
2022/01/20 12:05:44;;;;;;;4.13;2.37;;;4.90;83.30;;;;;;6216094;23;20221;-82
2022/01/20 12:08:15;;;;;;;4.40;2.50;;;4.90;83.90;;;;;;6215213;23;20232;-90
2022/01/20 12:10:43;;;;;;;5.77;2.13;;;4.90;82.40;;;;;;6216808;23;20233;-81
2022/01/20 12:13:12;;;;;;;4.40;2.37;;;4.90;83.10;;;;;;6217133;23;20205;-81
2022/01/20 12:15:50;;;;;;;3.70;2.30;;;4.80;83.70;;;;;;6190165;23;20503;-83
2022/01/20 12:18:19;;;;;;;4.87;2.33;;;4.80;82.20;;;;;;6218030;23;20498;-84
2022/01/20 12:20:46;;;;;;;5.83;2.40;;;4.90;82.80;;;;;;6216884;23;20180;-85
2022/01/20 12:23:13;;;;;;;6.20;2.40;;;4.70;83.50;;;;;;6216406;23;20613;-84
2022/01/20 12:25:41;;;;;;;4.63;2.30;;;4.60;84.70;;;;;;6216304;23;20198;-83
2022/01/20 12:28:09;;;;;;;5.33;2.87;;;4.50;83.60;;;;;;6212951;23;20572;-83
2022/01/20 12:30:40;;;;;;;4.83;2.53;;;4.50;84.80;;;;;;6209930;23;20232;-84
2022/01/20 12:33:12;;;;;;;3.90;2.57;;;4.60;84.40;;;;;;6213847;23;20606;-84
2022/01/20 12:35:44;;;;;;;3.87;2.00;;;4.70;83.00;;;;;;6215533;23;20245;-81
2022/01/20 12:38:23;;;;;;;3.70;2.30;;;4.80;83.60;;;;;;6187581;23;20208;-87
2022/01/20 12:41:04;;;;;;;4.57;2.60;;;4.80;81.00;;;;;;6216301;23;20241;-80
2022/01/20 12:43:42;;;;;;;4.63;2.23;;;4.70;82.70;;;;;;6219243;23;20208;-84
2022/01/20 12:49:31;;;;;;;5.23;2.00;;;4.60;82.70;;;;;;6221840;23;20305;-80
2022/01/20 12:51:59;;;;;;;3.93;1.67;;;4.90;82.30;;;;;;6218759;23;20165;-80
2022/01/20 12:58:05;;;;;;;3.10;1.90;;;5.30;76.00;;;;;;6219622;23;20142;-80
2022/01/20 13:04:01;;;;;;;3.30;2.20;;;4.70;78.40;;;;;;6220244;23;20698;-81
2022/01/20 13:06:29;;;;;;;6.40;2.07;;;4.50;79.60;;;;;;6217393;23;20687;-82
2022/01/20 13:09:00;;;;;;;2.67;1.90;;;4.30;81.40;;;;;;6214810;23;20213;-82
2022/01/20 13:11:32;;;;;;;5.17;2.27;;;4.20;83.90;;;;;;6217189;23;20170;-82
2022/01/20 13:14:00;;;;;;;3.80;2.00;;;4.30;84.40;;;;;;6214864;23;20208;-84
2022/01/20 13:16:28;;;;;;;5.07;2.07;;;4.40;83.10;;;;;;6214621;23;20174;-84
2022/01/20 13:19:46;;;;;;;4.03;2.10;;;4.20;84.40;;;;;;6216716;23;20541;-82
2022/01/20 13:22:23;;;;;;;3.00;2.50;;;4.20;84.50;;;;;;6224154;23;20204;-83
2022/01/20 13:24:54;;;;;;;4.13;2.17;;;4.40;84.40;;;;;;6220709;23;20224;-83
2022/01/20 13:27:21;;;;;;;3.43;2.30;;;4.50;83.90;;;;;;6222226;23;20194;-82
2022/01/20 13:33:16;;;;;;;1.70;1.60;;;4.40;84.40;;;;;;6220257;23;20176;-80
2022/01/20 13:39:32;;;;;;;4.10;2.30;;;4.40;87.00;;;;;;6221619;23;20214;-82
2022/01/20 13:42:20;;;;;;;3.57;2.00;;;4.30;87.80;;;;;;6216024;23;20169;-81
2022/01/20 13:45:12;;;;;;;4.30;2.27;;;4.20;88.10;;;;;;6219651;23;20177;-81
2022/01/20 13:48:03;;;;;;;2.97;2.30;;;4.20;88.50;;;;;;6221733;23;20185;-81
2022/01/20 13:50:33;;;;;;;2.47;1.93;;;4.20;88.70;;;;;;6221121;23;20174;-81
2022/01/20 13:53:02;;;;;;;2.40;2.00;;;4.00;90.00;;;;;;6222398;23;20500;-81
2022/01/20 14:05:37;;;;;;;4.57;2.30;;;3.90;90.30;;;;;;6221788;23;20563;-80
2022/01/20 14:08:06;;;;;;;2.37;2.17;;;4.10;88.40;;;;;;6221586;23;20641;-80
2022/01/20 14:11:04;;;;;;;3.53;2.07;;;4.10;88.40;;;;;;6227527;22;20189;-81
2022/01/20 14:14:13;;;;;;;3.97;2.60;;;4.10;89.30;;;;;;6229527;22;20204;-82
2022/01/20 14:16:41;;;;;;;4.70;2.00;;;4.10;88.40;;;;;;6221960;23;20179;-81
2022/01/20 14:19:43;;;;;;;4.27;2.30;;;4.00;89.00;;;;;;6230479;22;20181;-80
2022/01/20 14:22:40;;;;;;;3.53;2.47;;;4.10;89.30;;;;;;6219864;23;20189;-80
2022/01/20 14:26:00;;;;;;;2.37;2.00;;;4.10;89.50;;;;;;6220256;23;20253;-79
2022/01/20 14:29:00;;;;;;;5.60;2.37;;;4.00;88.30;;;;;;6217978;23;20619;-80
2022/01/20 14:31:27;;;;;;;4.80;2.60;;;3.90;88.30;;;;;;6215256;23;20238;-79
2022/01/20 14:37:22;;;;;;;3.10;2.50;;;3.80;89.70;;;;;;6212708;23;20146;-80
2022/01/20 14:39:49;;;;;;;5.53;2.53;;;3.80;90.30;;;;;;6211863;23;20249;-84
2022/01/20 14:42:18;;;;;;;3.17;2.40;;;3.70;90.40;;;;;;6212611;23;20575;-79
2022/01/20 14:44:47;;;;;;;3.93;2.30;;;3.70;90.50;;;;;;6213576;23;20693;-80
2022/01/20 14:47:15;;;;;;;2.93;2.30;;;3.70;90.60;;;;;;6214082;23;20208;-80
2022/01/20 14:49:42;;;;;;;3.73;2.30;;;3.70;90.50;;;;;;6215402;23;20202;-82
2022/01/20 14:52:09;;;;;;;2.83;2.50;;;3.60;90.90;;;;;;6216468;23;20197;-79
2022/01/20 14:54:43;;;;;;;3.13;2.40;;;3.60;90.90;;;;;;6212212;23;20206;-80
2022/01/20 14:57:20;;;;;;;3.43;2.63;;;3.60;91.00;;;;;;6211374;23;20168;-83
2022/01/20 14:59:48;;;;;;;4.10;2.57;;;3.50;91.30;;;;;;6133771;23;20517;-80
2022/01/20 15:02:17;;;;;;;3.70;2.87;;;3.50;91.70;;;;;;6210827;23;20170;-80
2022/01/20 15:04:47;;;;;;;2.83;2.50;;;3.40;92.20;;;;;;6211563;23;20273;-79
2022/01/20 15:07:22;;;;;;;4.00;2.67;;;3.30;92.90;;;;;;6214841;23;20217;-81
2022/01/20 15:09:50;;;;;;;3.83;2.80;;;3.30;93.40;;;;;;6215135;23;20201;-79
2022/01/20 15:12:17;;;;;;;3.17;2.47;;;3.10;94.00;;;;;;6212004;23;20272;-80
2022/01/20 15:14:44;;;;;;;4.00;3.20;;;3.00;94.60;;;;;;6213448;23;20276;-79
2022/01/20 15:17:11;;;;;;;5.57;2.87;;;2.90;94.70;;;;;;6216022;23;20264;-84
2022/01/20 15:19:38;;;;;;;6.07;3.40;;;2.80;95.40;;;;;;6215687;23;20607;-83
2022/01/20 15:22:05;;;;;;;6.10;3.43;;;2.70;96.00;;;;;;6215549;23;20204;-79
2022/01/20 15:24:35;;;;;;;3.60;3.23;;;2.60;96.50;;;;;;6214844;23;20285;-80